sensor_id;sensor_type;location;lat;lon;timestamp;temperature;humidity
13091;DHT22;6611;52.604;13.438;2023-02-11T00:01:15;4.21;73.08
13091;DHT22;6611;52.604;13.438;2023-02-11T00:06:21;4.16;73.58
13091;DHT22;6611;52.604;13.438;2023-02-11T00:11:23;4.28;73.17
13091;DHT22;6611;52.604;13.438;2023-02-11T00:16:29;4.33;73.09
13091;DHT22;6611;52.604;13.438;2023-02-11T00:21:33;4.23;73.61
13091;DHT22;6611;52.604;13.438;2023-02-11T00:26:34;4.22;73.63
13091;DHT22;6611;52.604;13.438;2023-02-11T00:31:37;4.29;73.40
13091;DHT22;6611;52.604;13.438;2023-02-11T00:36:41;4.26;73.55
13091;DHT22;6611;52.604;13.438;2023-02-11T00:41:42;4.32;73.40
13091;DHT22;6611;52.604;13.438;2023-02-11T00:46:44;4.36;73.45
13091;DHT22;6611;52.604;13.438;2023-02-11T00:51:47;4.25;74.00
13091;DHT22;6611;52.604;13.438;2023-02-11T00:56:48;4.32;73.67
13091;DHT22;6611;52.604;13.438;2023-02-11T01:01:50;4.33;73.86
13091;DHT22;6611;52.604;13.438;2023-02-11T01:06:53;4.35;74.11
13091;DHT22;6611;52.604;13.438;2023-02-11T01:11:55;4.28;74.25
13091;DHT22;6611;52.604;13.438;2023-02-11T01:16:57;4.32;74.64
13091;DHT22;6611;52.604;13.438;2023-02-11T01:22:00;4.42;74.53
13091;DHT22;6611;52.604;13.438;2023-02-11T01:27:02;4.43;75.19
13091;DHT22;6611;52.604;13.438;2023-02-11T01:32:03;4.46;75.53
13091;DHT22;6611;52.604;13.438;2023-02-11T01:37:06;4.52;75.41
13091;DHT22;6611;52.604;13.438;2023-02-11T01:42:09;4.52;75.59
13091;DHT22;6611;52.604;13.438;2023-02-11T01:47:11;4.48;75.63
13091;DHT22;6611;52.604;13.438;2023-02-11T01:52:17;4.53;75.37
13091;DHT22;6611;52.604;13.438;2023-02-11T01:57:22;4.61;75.29
13091;DHT22;6611;52.604;13.438;2023-02-11T02:02:31;4.59;75.48
13091;DHT22;6611;52.604;13.438;2023-02-11T02:07:43;4.64;75.59
13091;DHT22;6611;52.604;13.438;2023-02-11T02:12:46;4.66;75.73
13091;DHT22;6611;52.604;13.438;2023-02-11T02:17:55;4.74;75.59
13091;DHT22;6611;52.604;13.438;2023-02-11T02:23:28;4.83;75.29
13091;DHT22;6611;52.604;13.438;2023-02-11T02:28:50;4.81;75.40
13091;DHT22;6611;52.604;13.438;2023-02-11T02:34:00;4.78;75.63
13091;DHT22;6611;52.604;13.438;2023-02-11T02:39:06;4.78;75.51
13091;DHT22;6611;52.604;13.438;2023-02-11T02:44:09;4.81;75.54
13091;DHT22;6611;52.604;13.438;2023-02-11T02:49:15;4.81;75.66
13091;DHT22;6611;52.604;13.438;2023-02-11T03:00:13;4.84;75.82
13091;DHT22;6611;52.604;13.438;2023-02-11T03:05:21;4.83;75.92
13091;DHT22;6611;52.604;13.438;2023-02-11T03:10:26;4.83;76.09
13091;DHT22;6611;52.604;13.438;2023-02-11T03:15:31;4.78;76.56
13091;DHT22;6611;52.604;13.438;2023-02-11T03:20:40;4.80;76.49
13091;DHT22;6611;52.604;13.438;2023-02-11T03:25:45;4.80;76.62
13091;DHT22;6611;52.604;13.438;2023-02-11T03:30:54;4.83;76.56
13091;DHT22;6611;52.604;13.438;2023-02-11T03:36:02;4.81;76.95
13091;DHT22;6611;52.604;13.438;2023-02-11T03:41:06;4.88;76.82
13091;DHT22;6611;52.604;13.438;2023-02-11T03:46:10;4.81;77.07
13091;DHT22;6611;52.604;13.438;2023-02-11T03:51:15;4.85;77.20
13091;DHT22;6611;52.604;13.438;2023-02-11T03:56:20;4.88;77.33
13091;DHT22;6611;52.604;13.438;2023-02-11T04:01:24;4.87;77.50
13091;DHT22;6611;52.604;13.438;2023-02-11T04:06:27;4.85;77.76
13091;DHT22;6611;52.604;13.438;2023-02-11T04:11:28;4.91;77.91
13091;DHT22;6611;52.604;13.438;2023-02-11T04:16:30;4.95;77.90
13091;DHT22;6611;52.604;13.438;2023-02-11T04:21:33;4.98;78.20
13091;DHT22;6611;52.604;13.438;2023-02-11T04:26:34;4.94;78.57
13091;DHT22;6611;52.604;13.438;2023-02-11T04:31:36;5.02;78.49
13091;DHT22;6611;52.604;13.438;2023-02-11T04:36:39;5.04;78.70
13091;DHT22;6611;52.604;13.438;2023-02-11T04:41:41;4.99;79.24
13091;DHT22;6611;52.604;13.438;2023-02-11T04:46:43;5.01;79.61
13091;DHT22;6611;52.604;13.438;2023-02-11T04:51:46;5.07;79.61
13091;DHT22;6611;52.604;13.438;2023-02-11T04:56:48;5.07;80.13
13091;DHT22;6611;52.604;13.438;2023-02-11T05:01:50;5.01;80.88
13091;DHT22;6611;52.604;13.438;2023-02-11T05:06:53;4.98;81.36
13091;DHT22;6611;52.604;13.438;2023-02-11T05:11:55;4.96;81.79
13091;DHT22;6611;52.604;13.438;2023-02-11T05:16:56;4.99;82.20
13091;DHT22;6611;52.604;13.438;2023-02-11T05:21:59;4.98;82.37
13091;DHT22;6611;52.604;13.438;2023-02-11T05:27:01;4.98;82.70
13091;DHT22;6611;52.604;13.438;2023-02-11T05:32:03;4.98;83.21
13091;DHT22;6611;52.604;13.438;2023-02-11T05:37:07;5.04;82.88
13091;DHT22;6611;52.604;13.438;2023-02-11T05:42:09;4.98;83.04
13091;DHT22;6611;52.604;13.438;2023-02-11T05:47:11;5.01;83.09
13091;DHT22;6611;52.604;13.438;2023-02-11T05:52:14;5.07;83.11
13091;DHT22;6611;52.604;13.438;2023-02-11T05:57:16;4.98;83.91
13091;DHT22;6611;52.604;13.438;2023-02-11T06:02:18;5.01;84.03
13091;DHT22;6611;52.604;13.438;2023-02-11T06:07:21;5.01;84.18
13091;DHT22;6611;52.604;13.438;2023-02-11T06:12:22;5.15;84.23
13091;DHT22;6611;52.604;13.438;2023-02-11T06:17:24;5.16;84.30
13091;DHT22;6611;52.604;13.438;2023-02-11T06:22:29;5.19;84.62
13091;DHT22;6611;52.604;13.438;2023-02-11T06:27:31;5.16;85.02
13091;DHT22;6611;52.604;13.438;2023-02-11T06:32:32;5.22;85.38
13091;DHT22;6611;52.604;13.438;2023-02-11T06:37:35;5.19;85.85
13091;DHT22;6611;52.604;13.438;2023-02-11T06:42:37;5.26;86.00
13091;DHT22;6611;52.604;13.438;2023-02-11T06:47:39;5.28;86.28
13091;DHT22;6611;52.604;13.438;2023-02-11T06:52:42;5.30;86.29
13091;DHT22;6611;52.604;13.438;2023-02-11T06:57:44;5.33;86.36
13091;DHT22;6611;52.604;13.438;2023-02-11T07:02:46;5.37;86.21
13091;DHT22;6611;52.604;13.438;2023-02-11T07:07:49;5.46;86.48
13091;DHT22;6611;52.604;13.438;2023-02-11T07:12:50;5.46;86.79
13091;DHT22;6611;52.604;13.438;2023-02-11T07:17:52;5.56;86.61
13091;DHT22;6611;52.604;13.438;2023-02-11T07:22:55;5.65;86.51
13091;DHT22;6611;52.604;13.438;2023-02-11T07:27:57;5.73;86.48
13091;DHT22;6611;52.604;13.438;2023-02-11T07:32:59;5.82;86.20
13091;DHT22;6611;52.604;13.438;2023-02-11T07:38:02;5.88;86.07
13091;DHT22;6611;52.604;13.438;2023-02-11T07:43:04;5.92;86.16
13091;DHT22;6611;52.604;13.438;2023-02-11T07:48:05;6.02;85.88
13091;DHT22;6611;52.604;13.438;2023-02-11T07:53:08;6.09;85.69
13091;DHT22;6611;52.604;13.438;2023-02-11T07:58:10;6.09;85.64
13091;DHT22;6611;52.604;13.438;2023-02-11T08:03:12;6.17;85.55
13091;DHT22;6611;52.604;13.438;2023-02-11T08:08:15;6.22;85.69
13091;DHT22;6611;52.604;13.438;2023-02-11T08:13:16;6.29;85.72
13091;DHT22;6611;52.604;13.438;2023-02-11T08:18:18;6.32;85.98
13091;DHT22;6611;52.604;13.438;2023-02-11T08:23:21;6.34;86.37
13091;DHT22;6611;52.604;13.438;2023-02-11T08:28:23;6.40;86.33
13091;DHT22;6611;52.604;13.438;2023-02-11T08:33:25;6.40;86.40
13091;DHT22;6611;52.604;13.438;2023-02-11T08:38:28;6.41;86.69
13091;DHT22;6611;52.604;13.438;2023-02-11T08:43:30;6.34;86.96
13091;DHT22;6611;52.604;13.438;2023-02-11T08:48:32;6.68;86.35
13091;DHT22;6611;52.604;13.438;2023-02-11T08:53:36;6.74;85.90
13091;DHT22;6611;52.604;13.438;2023-02-11T08:58:38;6.75;85.02
13091;DHT22;6611;52.604;13.438;2023-02-11T09:03:39;6.75;84.79
13091;DHT22;6611;52.604;13.438;2023-02-11T09:08:44;6.64;84.91
13091;DHT22;6611;52.604;13.438;2023-02-11T09:13:46;6.51;85.35
13091;DHT22;6611;52.604;13.438;2023-02-11T09:18:47;6.51;85.71
13091;DHT22;6611;52.604;13.438;2023-02-11T09:23:51;6.50;85.94
13091;DHT22;6611;52.604;13.438;2023-02-11T09:28:53;6.47;86.27
13091;DHT22;6611;52.604;13.438;2023-02-11T09:33:56;6.48;86.41
13091;DHT22;6611;52.604;13.438;2023-02-11T09:39:00;6.50;86.53
13091;DHT22;6611;52.604;13.438;2023-02-11T09:44:06;6.55;86.54
13091;DHT22;6611;52.604;13.438;2023-02-11T09:49:18;6.64;86.70
13091;DHT22;6611;52.604;13.438;2023-02-11T09:54:26;6.63;87.22
13091;DHT22;6611;52.604;13.438;2023-02-11T09:59:29;6.65;87.14
13091;DHT22;6611;52.604;13.438;2023-02-11T10:04:41;6.60;87.37
13091;DHT22;6611;52.604;13.438;2023-02-11T10:09:55;6.63;87.35
13091;DHT22;6611;52.604;13.438;2023-02-11T10:15:10;6.68;87.39
13091;DHT22;6611;52.604;13.438;2023-02-11T10:20:19;6.68;87.83
13091;DHT22;6611;52.604;13.438;2023-02-11T10:25:28;6.70;87.94
13091;DHT22;6611;52.604;13.438;2023-02-11T10:30:37;6.67;88.36
13091;DHT22;6611;52.604;13.438;2023-02-11T10:35:41;6.75;88.15
13091;DHT22;6611;52.604;13.438;2023-02-11T10:40:44;6.78;88.46
13091;DHT22;6611;52.604;13.438;2023-02-11T10:45:48;6.74;88.86
13091;DHT22;6611;52.604;13.438;2023-02-11T10:50:50;6.84;88.90
13091;DHT22;6611;52.604;13.438;2023-02-11T10:55:59;6.87;88.98
13091;DHT22;6611;52.604;13.438;2023-02-11T11:01:01;6.93;88.98
13091;DHT22;6611;52.604;13.438;2023-02-11T11:06:05;6.92;89.18
13091;DHT22;6611;52.604;13.438;2023-02-11T11:11:11;6.95;89.52
13091;DHT22;6611;52.604;13.438;2023-02-11T11:16:21;6.95;89.47
13091;DHT22;6611;52.604;13.438;2023-02-11T11:21:34;6.91;89.77
13091;DHT22;6611;52.604;13.438;2023-02-11T11:26:44;6.95;89.98
13091;DHT22;6611;52.604;13.438;2023-02-11T11:31:50;7.00;89.69
13091;DHT22;6611;52.604;13.438;2023-02-11T11:36:52;6.96;89.86
13091;DHT22;6611;52.604;13.438;2023-02-11T11:41:57;7.02;89.64
13091;DHT22;6611;52.604;13.438;2023-02-11T11:52:36;7.10;89.63
13091;DHT22;6611;52.604;13.438;2023-02-11T11:57:41;7.12;89.50
13091;DHT22;6611;52.604;13.438;2023-02-11T12:08:18;7.22;89.39
13091;DHT22;6611;52.604;13.438;2023-02-11T12:13:30;7.23;89.47
13091;DHT22;6611;52.604;13.438;2023-02-11T12:18:50;7.24;89.38
13091;DHT22;6611;52.604;13.438;2023-02-11T12:24:08;7.34;89.15
13091;DHT22;6611;52.604;13.438;2023-02-11T12:29:24;7.37;89.18
13091;DHT22;6611;52.604;13.438;2023-02-11T12:34:41;7.41;88.87
13091;DHT22;6611;52.604;13.438;2023-02-11T12:39:50;7.48;88.91
13091;DHT22;6611;52.604;13.438;2023-02-11T12:45:05;7.47;89.14
13091;DHT22;6611;52.604;13.438;2023-02-11T12:50:17;7.47;89.57
13091;DHT22;6611;52.604;13.438;2023-02-11T12:55:24;7.46;89.64
13091;DHT22;6611;52.604;13.438;2023-02-11T13:00:34;7.40;89.82
13091;DHT22;6611;52.604;13.438;2023-02-11T13:05:42;7.43;89.77
13091;DHT22;6611;52.604;13.438;2023-02-11T13:10:48;7.43;89.92
13091;DHT22;6611;52.604;13.438;2023-02-11T13:15:54;7.46;89.85
13091;DHT22;6611;52.604;13.438;2023-02-11T13:21:03;7.44;89.87
13091;DHT22;6611;52.604;13.438;2023-02-11T13:26:17;7.48;89.95
13091;DHT22;6611;52.604;13.438;2023-02-11T13:31:21;7.50;89.89
13091;DHT22;6611;52.604;13.438;2023-02-11T13:36:27;7.50;90.01
13091;DHT22;6611;52.604;13.438;2023-02-11T13:41:34;7.51;90.13
13091;DHT22;6611;52.604;13.438;2023-02-11T13:46:57;7.52;90.26
13091;DHT22;6611;52.604;13.438;2023-02-11T13:51:59;7.52;90.23
13091;DHT22;6611;52.604;13.438;2023-02-11T13:57:21;7.52;90.32
13091;DHT22;6611;52.604;13.438;2023-02-11T14:02:29;7.52;90.42
13091;DHT22;6611;52.604;13.438;2023-02-11T14:08:16;7.54;90.44
13091;DHT22;6611;52.604;13.438;2023-02-11T14:19:34;7.58;90.47
13091;DHT22;6611;52.604;13.438;2023-02-11T14:24:46;7.61;90.69
13091;DHT22;6611;52.604;13.438;2023-02-11T14:29:59;7.52;91.03
13091;DHT22;6611;52.604;13.438;2023-02-11T14:35:09;7.52;91.19
13091;DHT22;6611;52.604;13.438;2023-02-11T14:40:20;7.57;91.06
13091;DHT22;6611;52.604;13.438;2023-02-11T14:45:26;7.52;91.19
13091;DHT22;6611;52.604;13.438;2023-02-11T14:50:33;7.51;91.47
13091;DHT22;6611;52.604;13.438;2023-02-11T14:55:40;7.59;91.06
13091;DHT22;6611;52.604;13.438;2023-02-11T15:00:51;7.55;91.18
13091;DHT22;6611;52.604;13.438;2023-02-11T15:05:56;7.61;91.10
13091;DHT22;6611;52.604;13.438;2023-02-11T15:11:00;7.57;91.26
13091;DHT22;6611;52.604;13.438;2023-02-11T15:16:05;7.55;91.38
13091;DHT22;6611;52.604;13.438;2023-02-11T15:21:09;7.52;91.31
13091;DHT22;6611;52.604;13.438;2023-02-11T15:26:12;7.52;91.39
13091;DHT22;6611;52.604;13.438;2023-02-11T15:31:16;7.54;91.56
13091;DHT22;6611;52.604;13.438;2023-02-11T15:36:23;7.57;91.39
13091;DHT22;6611;52.604;13.438;2023-02-11T15:41:34;7.52;91.60
13091;DHT22;6611;52.604;13.438;2023-02-11T15:46:37;7.57;91.64
13091;DHT22;6611;52.604;13.438;2023-02-11T15:51:44;7.59;91.47
13091;DHT22;6611;52.604;13.438;2023-02-11T15:56:48;7.55;91.42
13091;DHT22;6611;52.604;13.438;2023-02-11T16:01:51;7.55;91.73
13091;DHT22;6611;52.604;13.438;2023-02-11T16:06:55;7.50;91.93
13091;DHT22;6611;52.604;13.438;2023-02-11T16:11:58;7.51;91.93
13091;DHT22;6611;52.604;13.438;2023-02-11T16:17:03;7.51;91.98
13091;DHT22;6611;52.604;13.438;2023-02-11T16:22:09;7.54;91.97
13091;DHT22;6611;52.604;13.438;2023-02-11T16:27:19;7.57;91.85
13091;DHT22;6611;52.604;13.438;2023-02-11T16:32:23;7.57;91.80
13091;DHT22;6611;52.604;13.438;2023-02-11T16:37:26;7.58;91.85
13091;DHT22;6611;52.604;13.438;2023-02-11T16:42:28;7.64;91.54
13091;DHT22;6611;52.604;13.438;2023-02-11T16:47:30;7.65;91.51
13091;DHT22;6611;52.604;13.438;2023-02-11T16:52:34;7.58;91.75
13091;DHT22;6611;52.604;13.438;2023-02-11T16:57:36;7.58;91.78
13091;DHT22;6611;52.604;13.438;2023-02-11T17:02:38;7.58;91.79
13091;DHT22;6611;52.604;13.438;2023-02-11T17:07:41;7.64;91.61
13091;DHT22;6611;52.604;13.438;2023-02-11T17:12:43;7.71;91.51
13091;DHT22;6611;52.604;13.438;2023-02-11T17:17:45;7.71;91.54
13091;DHT22;6611;52.604;13.438;2023-02-11T17:22:49;7.72;91.40
13091;DHT22;6611;52.604;13.438;2023-02-11T17:27:50;7.76;91.41
13091;DHT22;6611;52.604;13.438;2023-02-11T17:32:53;7.93;90.92
13091;DHT22;6611;52.604;13.438;2023-02-11T17:37:56;7.96;90.57
13091;DHT22;6611;52.604;13.438;2023-02-11T17:42:58;8.06;90.39
13091;DHT22;6611;52.604;13.438;2023-02-11T17:48:00;8.27;89.58
13091;DHT22;6611;52.604;13.438;2023-02-11T17:53:03;8.19;89.52
13091;DHT22;6611;52.604;13.438;2023-02-11T17:58:05;8.31;89.26
13091;DHT22;6611;52.604;13.438;2023-02-11T18:03:06;8.20;89.02
13091;DHT22;6611;52.604;13.438;2023-02-11T18:08:09;8.09;89.40
13091;DHT22;6611;52.604;13.438;2023-02-11T18:13:11;7.97;89.72
13091;DHT22;6611;52.604;13.438;2023-02-11T18:18:13;7.93;90.06
13091;DHT22;6611;52.604;13.438;2023-02-11T18:23:16;7.90;90.13
13091;DHT22;6611;52.604;13.438;2023-02-11T18:28:18;7.86;90.43
13091;DHT22;6611;52.604;13.438;2023-02-11T18:33:19;7.79;90.69
13091;DHT22;6611;52.604;13.438;2023-02-11T18:38:23;7.78;90.58
13091;DHT22;6611;52.604;13.438;2023-02-11T18:43:25;7.78;90.66
13091;DHT22;6611;52.604;13.438;2023-02-11T18:48:30;7.72;90.72
13091;DHT22;6611;52.604;13.438;2023-02-11T18:53:33;7.74;90.98
13091;DHT22;6611;52.604;13.438;2023-02-11T18:58:35;7.69;91.02
13091;DHT22;6611;52.604;13.438;2023-02-11T19:03:37;7.79;90.61
13091;DHT22;6611;52.604;13.438;2023-02-11T19:08:41;7.78;90.53
13091;DHT22;6611;52.604;13.438;2023-02-11T19:13:43;7.76;90.72
13091;DHT22;6611;52.604;13.438;2023-02-11T19:18:46;7.79;90.49
13091;DHT22;6611;52.604;13.438;2023-02-11T19:23:49;7.78;90.58
13091;DHT22;6611;52.604;13.438;2023-02-11T19:28:52;7.69;90.95
13091;DHT22;6611;52.604;13.438;2023-02-11T19:33:53;7.72;90.69
13091;DHT22;6611;52.604;13.438;2023-02-11T19:38:58;7.69;90.54
13091;DHT22;6611;52.604;13.438;2023-02-11T19:44:01;7.67;90.52
13091;DHT22;6611;52.604;13.438;2023-02-11T19:49:03;7.61;90.89
13091;DHT22;6611;52.604;13.438;2023-02-11T19:54:06;7.62;90.49
13091;DHT22;6611;52.604;13.438;2023-02-11T19:59:08;7.59;90.62
13091;DHT22;6611;52.604;13.438;2023-02-11T20:04:10;7.67;90.50
13091;DHT22;6611;52.604;13.438;2023-02-11T20:09:14;7.55;90.64
13091;DHT22;6611;52.604;13.438;2023-02-11T20:14:15;7.52;90.73
13091;DHT22;6611;52.604;13.438;2023-02-11T20:19:18;7.47;90.95
13091;DHT22;6611;52.604;13.438;2023-02-11T20:24:23;7.54;90.74
13091;DHT22;6611;52.604;13.438;2023-02-11T20:29:25;7.47;91.09
13091;DHT22;6611;52.604;13.438;2023-02-11T20:34:30;7.48;91.09
13091;DHT22;6611;52.604;13.438;2023-02-11T20:39:33;7.52;91.01
13091;DHT22;6611;52.604;13.438;2023-02-11T20:44:36;7.54;90.86
13091;DHT22;6611;52.604;13.438;2023-02-11T20:49:38;7.55;90.66
13091;DHT22;6611;52.604;13.438;2023-02-11T20:54:41;7.65;90.44
13091;DHT22;6611;52.604;13.438;2023-02-11T20:59:42;7.58;90.41
13091;DHT22;6611;52.604;13.438;2023-02-11T21:04:44;7.61;90.31
13091;DHT22;6611;52.604;13.438;2023-02-11T21:09:47;7.59;90.33
13091;DHT22;6611;52.604;13.438;2023-02-11T21:14:49;7.61;90.24
13091;DHT22;6611;52.604;13.438;2023-02-11T21:19:51;7.51;90.41
13091;DHT22;6611;52.604;13.438;2023-02-11T21:24:54;7.48;90.34
13091;DHT22;6611;52.604;13.438;2023-02-11T21:29:55;7.51;90.30
13091;DHT22;6611;52.604;13.438;2023-02-11T21:34:57;7.51;90.25
13091;DHT22;6611;52.604;13.438;2023-02-11T21:40:00;7.46;90.49
13091;DHT22;6611;52.604;13.438;2023-02-11T21:45:02;7.47;90.18
13091;DHT22;6611;52.604;13.438;2023-02-11T21:50:05;7.47;90.22
13091;DHT22;6611;52.604;13.438;2023-02-11T21:55:08;7.55;90.09
13091;DHT22;6611;52.604;13.438;2023-02-11T22:00:12;7.59;89.65
13091;DHT22;6611;52.604;13.438;2023-02-11T22:05:13;7.58;89.70
13091;DHT22;6611;52.604;13.438;2023-02-11T22:10:17;7.50;89.86
13091;DHT22;6611;52.604;13.438;2023-02-11T22:15:18;7.55;89.67
13091;DHT22;6611;52.604;13.438;2023-02-11T22:20:20;7.61;89.39
13091;DHT22;6611;52.604;13.438;2023-02-11T22:25:23;7.50;89.50
13091;DHT22;6611;52.604;13.438;2023-02-11T22:30:25;7.41;89.71
13091;DHT22;6611;52.604;13.438;2023-02-11T22:35:27;7.41;89.81
13091;DHT22;6611;52.604;13.438;2023-02-11T22:40:31;7.41;89.70
13091;DHT22;6611;52.604;13.438;2023-02-11T22:45:33;7.41;89.68
13091;DHT22;6611;52.604;13.438;2023-02-11T22:50:36;7.35;89.93
13091;DHT22;6611;52.604;13.438;2023-02-11T22:55:39;7.40;89.76
13091;DHT22;6611;52.604;13.438;2023-02-11T23:00:41;7.38;89.75
13091;DHT22;6611;52.604;13.438;2023-02-11T23:05:42;7.35;89.72
13091;DHT22;6611;52.604;13.438;2023-02-11T23:10:45;7.33;89.79
13091;DHT22;6611;52.604;13.438;2023-02-11T23:15:48;7.34;89.73
13091;DHT22;6611;52.604;13.438;2023-02-11T23:20:50;7.34;89.60
13091;DHT22;6611;52.604;13.438;2023-02-11T23:25:53;7.33;89.64
13091;DHT22;6611;52.604;13.438;2023-02-11T23:30:55;7.26;89.88
13091;DHT22;6611;52.604;13.438;2023-02-11T23:35:56;7.30;89.70
13091;DHT22;6611;52.604;13.438;2023-02-11T23:40:59;7.31;89.50
13091;DHT22;6611;52.604;13.438;2023-02-11T23:46:01;7.35;89.54
13091;DHT22;6611;52.604;13.438;2023-02-11T23:51:03;7.26;89.73
13091;DHT22;6611;52.604;13.438;2023-02-11T23:56:08;7.24;89.57
